Pie Town, New Mexico
Current Conditions -  °F | °C
As of 12:15 PM on Saturday 20 Dec 2014 (Local Time) from KGNT Reporting Station
Clear Clear  
Wind Chill:   Ceiling: Unl
Heat Index:   Visibility: 10mi
Dew Point: -7°   Wind: 8mph
Humidity: 41%   Direction: 340°NNW
Pressure: 30.15"   Gusts: NA
Location:  34.3°N, 108.15°W
Report Text: KGNT 201915Z AUTO 34007KT 10SM CLR 05/M07 A3015 RMK AO2 T00531071
Loading
Personal Weather Stations






























Interactive Weather Map New forecast layout! Learn more

10-Day Weather Forecast

Advertisements
Track Severe Weather on mobile